createdAt,value
2019-03-24T11:46:23.942Z,23
2019-03-24T11:56:27.382Z,25
2019-03-24T12:06:30.823Z,26
2019-03-24T12:16:34.256Z,29
2019-03-24T12:26:37.692Z,31
2019-03-24T12:36:41.103Z,32
2019-03-24T12:46:44.546Z,33
2019-03-24T12:56:48.001Z,33
2019-03-24T13:06:51.426Z,34
2019-03-24T13:16:54.867Z,33
2019-03-24T13:26:58.303Z,34
2019-03-24T13:37:04.591Z,34
2019-03-24T13:47:08.049Z,34
2019-03-24T13:57:11.480Z,35
2019-03-24T14:07:14.909Z,35
2019-03-24T14:17:18.357Z,36
2019-03-24T14:27:21.802Z,35
2019-03-24T14:37:25.254Z,35
2019-03-24T14:47:28.659Z,36
2019-03-24T14:57:32.097Z,35
2019-03-24T15:07:35.532Z,35
2019-03-24T15:17:38.942Z,35
2019-03-24T15:27:42.381Z,35
2019-03-24T15:37:45.890Z,36
2019-03-24T15:47:49.298Z,36
2019-03-24T15:57:52.734Z,35
2019-03-24T16:07:56.150Z,36
2019-03-24T16:17:59.581Z,35
2019-03-24T16:28:03.011Z,36
2019-03-24T16:38:06.464Z,35
2019-03-24T16:48:09.897Z,35
2019-03-24T16:58:13.710Z,36
2019-03-24T17:08:17.231Z,36
2019-03-24T17:18:20.641Z,36
2019-03-24T17:28:24.077Z,36
2019-03-24T17:38:27.502Z,36
2019-03-24T17:48:30.946Z,36
2019-03-24T17:58:34.354Z,35
2019-03-24T18:08:37.799Z,36
2019-03-24T18:18:41.226Z,36
2019-03-24T18:28:44.663Z,36
2019-03-24T18:38:48.122Z,37
2019-03-24T18:48:51.564Z,37
2019-03-24T18:58:55.000Z,37
2019-03-24T19:08:58.459Z,36
2019-03-24T19:19:01.877Z,36
2019-03-24T19:29:05.312Z,36
2019-03-24T19:39:08.771Z,36
2019-03-24T19:49:12.219Z,36
2019-03-24T19:59:15.614Z,36
2019-03-24T20:09:19.073Z,36
2019-03-24T20:19:25.041Z,37
2019-03-24T20:29:28.491Z,36
2019-03-24T20:39:31.934Z,36
2019-03-24T20:49:35.405Z,36
2019-03-24T20:59:38.845Z,36
2019-03-24T21:09:42.274Z,36
2019-03-24T21:19:45.719Z,37
2019-03-24T21:29:49.162Z,36
2019-03-24T21:39:52.626Z,36
2019-03-24T21:49:56.075Z,36
2019-03-24T21:59:59.530Z,37
2019-03-24T22:10:02.960Z,37
2019-03-24T22:20:06.400Z,37
2019-03-24T22:30:09.818Z,35
2019-03-24T22:40:13.238Z,36
2019-03-24T22:50:16.679Z,36
2019-03-24T23:00:20.185Z,36
2019-03-24T23:10:23.592Z,37
2019-03-24T23:20:27.038Z,44
2019-03-24T23:30:30.443Z,40
2019-03-24T23:40:33.885Z,35
2019-03-24T23:50:37.315Z,35
